CCR1023 SBSG-SBCF
Flight info
| Callsign | CCR1023 |
|---|---|
| Flight time | N/A |
| Altitude | 38000 |
| Route | SIKEL UZ21 OPTEB |
| Aircraft | B77L/H-SDE1E2E3FGHIJ2J4J5J7M1M3P2RWXYZ/LB1D1 |
Departure
| Time | 2026-05-04 22:53 |
|---|---|
| Airport | Rio Grande do Norte/São Gonçalo do Amarante–Governador Aluízio Alves International Airport (SBSG) |
Arrival
| Time | N/A |
|---|---|
| Airport | Tancredo Neves International Airport (SBCF) |
| Time | Latitude | Longitude | Altitude | Speed | Heading |
|---|---|---|---|---|---|
| 2026-05-04 22:25 | -5.76465 | -35.36857 | 287 ft | 0 kts | 8° |
| 2026-05-04 22:41 | -5.76478 | -35.36859 | 287 ft | 2 kts | 9° |
| 2026-05-04 22:41 | -5.76493 | -35.36861 | 287 ft | 2 kts | 8° |
| 2026-05-04 22:42 | -5.76509 | -35.36864 | 287 ft | 2 kts | 8° |
| 2026-05-04 22:42 | -5.76525 | -35.36866 | 287 ft | 2 kts | 8° |
| 2026-05-04 22:42 | -5.76541 | -35.36869 | 287 ft | 2 kts | 8° |
| 2026-05-04 22:42 | -5.76556 | -35.36870 | 287 ft | 2 kts | 352° |
| 2026-05-04 22:43 | -5.76568 | -35.36866 | 287 ft | 2 kts | 318° |
| 2026-05-04 22:43 | -5.76576 | -35.36855 | 287 ft | 2 kts | 284° |
| 2026-05-04 22:43 | -5.76579 | -35.36839 | 287 ft | 2 kts | 279° |
| 2026-05-04 22:43 | -5.76581 | -35.36823 | 287 ft | 2 kts | 279° |
| 2026-05-04 22:44 | -5.76584 | -35.36808 | 287 ft | 2 kts | 280° |
| 2026-05-04 22:44 | -5.76585 | -35.36801 | 287 ft | 0 kts | 280° |
| 2026-05-04 22:47 | -5.76582 | -35.36819 | 287 ft | 7 kts | 280° |
| 2026-05-04 22:47 | -5.76569 | -35.36896 | 287 ft | 15 kts | 278° |
| 2026-05-04 22:47 | -5.76551 | -35.37018 | 287 ft | 17 kts | 278° |
| 2026-05-04 22:47 | -5.76536 | -35.37131 | 287 ft | 17 kts | 278° |
| 2026-05-04 22:48 | -5.76548 | -35.37232 | 287 ft | 13 kts | 205° |
| 2026-05-04 22:48 | -5.76636 | -35.37250 | 287 ft | 12 kts | 189° |
| 2026-05-04 22:48 | -5.76694 | -35.37308 | 287 ft | 16 kts | 271° |
| 2026-05-04 22:48 | -5.76679 | -35.37412 | 287 ft | 13 kts | 279° |
| 2026-05-04 22:49 | -5.76659 | -35.37539 | 287 ft | 22 kts | 279° |
| 2026-05-04 22:49 | -5.76638 | -35.37678 | 287 ft | 18 kts | 278° |
| 2026-05-04 22:49 | -5.76620 | -35.37803 | 287 ft | 19 kts | 279° |
| 2026-05-04 22:49 | -5.76615 | -35.37925 | 287 ft | 15 kts | 251° |
| 2026-05-04 22:50 | -5.76658 | -35.37964 | 287 ft | 0 kts | 198° |
| 2026-05-04 22:50 | -5.76707 | -35.37974 | 287 ft | 11 kts | 189° |
| 2026-05-04 22:51 | -5.76758 | -35.37966 | 287 ft | 8 kts | 136° |
| 2026-05-04 22:51 | -5.76771 | -35.37930 | 287 ft | 6 kts | 103° |
| 2026-05-04 22:51 | -5.76775 | -35.37903 | 287 ft | 1 kts | 99° |
| 2026-05-04 22:51 | -5.76775 | -35.37902 | 287 ft | 0 kts | 99° |
| 2026-05-04 22:52 | -5.76789 | -35.37812 | 287 ft | 40 kts | 99° |
| 2026-05-04 22:52 | -5.76867 | -35.37314 | 287 ft | 102 kts | 99° |
| 2026-05-04 22:53 | -5.77002 | -35.36426 | 287 ft | 154 kts | 99° |
| 2026-05-04 22:53 | -5.77174 | -35.35266 | 536 ft | 177 kts | 99° |
| 2026-05-04 22:53 | -5.77355 | -35.34034 | 1156 ft | 180 kts | 101° |
| 2026-05-04 22:53 | -5.77556 | -35.32809 | 2073 ft | 174 kts | 103° |
| 2026-05-04 22:54 | -5.77848 | -35.31665 | 2909 ft | 174 kts | 117° |
| 2026-05-04 22:54 | -5.78672 | -35.30757 | 3651 ft | 176 kts | 140° |
| 2026-05-04 22:54 | -5.79796 | -35.30131 | 4217 ft | 196 kts | 151° |
| 2026-05-04 22:54 | -5.81117 | -35.29487 | 4534 ft | 225 kts | 153° |
| 2026-05-04 22:55 | -5.82594 | -35.28790 | 5146 ft | 242 kts | 154° |
| 2026-05-04 22:55 | -5.84165 | -35.28047 | 5883 ft | 253 kts | 153° |
| 2026-05-04 22:55 | -5.85782 | -35.27278 | 6752 ft | 261 kts | 153° |
| 2026-05-04 22:55 | -5.87427 | -35.26492 | 7595 ft | 267 kts | 154° |
| 2026-05-04 22:56 | -5.89136 | -35.25706 | 8460 ft | 273 kts | 158° |
| 2026-05-04 22:56 | -5.91017 | -35.25341 | 9268 ft | 280 kts | 178° |
| 2026-05-04 22:56 | -5.92966 | -35.25539 | 10110 ft | 286 kts | 189° |
| 2026-05-04 22:56 | -5.94953 | -35.26009 | 10705 ft | 303 kts | 194° |
| 2026-05-04 22:57 | -5.97030 | -35.26654 | 11242 ft | 322 kts | 197° |
| 2026-05-04 22:57 | -5.99216 | -35.27381 | 11839 ft | 339 kts | 197° |
| 2026-05-04 22:57 | -6.01536 | -35.28115 | 12383 ft | 359 kts | 196° |
| 2026-05-04 22:57 | -6.03996 | -35.28862 | 12930 ft | 377 kts | 195° |
| 2026-05-04 22:58 | -6.06564 | -35.29637 | 13586 ft | 391 kts | 195° |
| 2026-05-04 22:58 | -6.09205 | -35.30459 | 14319 ft | 402 kts | 197° |
| 2026-05-04 22:58 | -6.11885 | -35.31364 | 15064 ft | 411 kts | 198° |
| 2026-05-04 22:58 | -6.14607 | -35.32319 | 15879 ft | 417 kts | 198° |
| 2026-05-04 22:59 | -6.17333 | -35.33265 | 16653 ft | 422 kts | 198° |
| 2026-05-04 22:59 | -6.20133 | -35.34226 | 17439 ft | 427 kts | 198° |
| 2026-05-04 22:59 | -6.22966 | -35.35193 | 18183 ft | 432 kts | 198° |
| 2026-05-04 22:59 | -6.25851 | -35.36068 | 18862 ft | 436 kts | 193° |
| 2026-05-04 23:00 | -6.28850 | -35.36618 | 19539 ft | 440 kts | 187° |
| 2026-05-04 23:00 | -6.31912 | -35.36973 | 20191 ft | 444 kts | 185° |
| 2026-05-04 23:00 | -6.35004 | -35.37231 | 20809 ft | 448 kts | 183° |
| 2026-05-04 23:00 | -6.38138 | -35.37399 | 21403 ft | 452 kts | 181° |
| 2026-05-04 23:01 | -6.41300 | -35.37510 | 21982 ft | 456 kts | 181° |
| 2026-05-04 23:01 | -6.44493 | -35.37610 | 22535 ft | 461 kts | 181° |
| 2026-05-04 23:01 | -6.47707 | -35.37714 | 23076 ft | 464 kts | 181° |
| 2026-05-04 23:01 | -6.50953 | -35.37822 | 23601 ft | 468 kts | 181° |
| 2026-05-04 23:02 | -6.54182 | -35.37930 | 24105 ft | 472 kts | 181° |
| 2026-05-04 23:02 | -6.57518 | -35.38044 | 24598 ft | 475 kts | 181° |
| 2026-05-04 23:02 | -6.60798 | -35.38155 | 25058 ft | 479 kts | 181° |
| 2026-05-04 23:02 | -6.64143 | -35.38269 | 25532 ft | 482 kts | 181° |
| 2026-05-04 23:03 | -6.67509 | -35.38384 | 26015 ft | 484 kts | 181° |
| 2026-05-04 23:03 | -6.70888 | -35.38499 | 26510 ft | 486 kts | 181° |
| 2026-05-04 23:03 | -6.74280 | -35.38614 | 26988 ft | 488 kts | 180° |
| 2026-05-04 23:03 | -6.76536 | -35.38691 | 27310 ft | 489 kts | 180° |
| 2026-05-04 23:04 | -6.81062 | -35.38846 | 27908 ft | 491 kts | 180° |
| 2026-05-04 23:04 | -6.84487 | -35.38963 | 28373 ft | 493 kts | 180° |
| 2026-05-04 23:04 | -6.86763 | -35.39041 | 28685 ft | 493 kts | 181° |
| 2026-05-04 23:04 | -6.90239 | -35.39159 | 29082 ft | 495 kts | 181° |
| 2026-05-04 23:05 | -6.93655 | -35.39276 | 29463 ft | 497 kts | 181° |
| 2026-05-04 23:05 | -6.97115 | -35.39453 | 29786 ft | 500 kts | 183° |
| 2026-05-04 23:05 | -7.00585 | -35.39789 | 30134 ft | 501 kts | 185° |
| 2026-05-04 23:05 | -7.04046 | -35.40224 | 30575 ft | 500 kts | 187° |
| 2026-05-04 23:06 | -7.07471 | -35.40698 | 31164 ft | 496 kts | 187° |
| 2026-05-04 23:06 | -7.10890 | -35.41155 | 31668 ft | 493 kts | 187° |
| 2026-05-04 23:06 | -7.14304 | -35.41588 | 32080 ft | 493 kts | 187° |
| 2026-05-04 23:06 | -7.17704 | -35.42005 | 32495 ft | 493 kts | 187° |
| 2026-05-04 23:07 | -7.21110 | -35.42417 | 32922 ft | 492 kts | 187° |
| 2026-05-04 23:07 | -7.24503 | -35.42826 | 33383 ft | 491 kts | 187° |
| 2026-05-04 23:07 | -7.27855 | -35.43229 | 33812 ft | 490 kts | 187° |
| 2026-05-04 23:07 | -7.31235 | -35.43635 | 34255 ft | 489 kts | 188° |
| 2026-05-04 23:08 | -7.34615 | -35.44039 | 34695 ft | 488 kts | 188° |
| 2026-05-04 23:08 | -7.37984 | -35.44443 | 35146 ft | 487 kts | 188° |
| 2026-05-04 23:08 | -7.41343 | -35.44846 | 35639 ft | 485 kts | 188° |
| 2026-05-04 23:08 | -7.44687 | -35.45248 | 36113 ft | 483 kts | 188° |
| 2026-05-04 23:09 | -7.48027 | -35.45649 | 36586 ft | 482 kts | 188° |
| 2026-05-04 23:09 | -7.51357 | -35.46048 | 37028 ft | 481 kts | 188° |
| 2026-05-04 23:09 | -7.54684 | -35.46448 | 37489 ft | 480 kts | 188° |
| 2026-05-04 23:09 | -7.57992 | -35.46845 | 37909 ft | 480 kts | 188° |
| 2026-05-04 23:10 | -7.61311 | -35.47261 | 38011 ft | 480 kts | 190° |
| 2026-05-04 23:10 | -7.64564 | -35.48016 | 38022 ft | 479 kts | 198° |
| 2026-05-04 23:10 | -7.70752 | -35.50369 | 38026 ft | 478 kts | 204° |
| 2026-05-04 23:11 | -7.76857 | -35.53047 | 38015 ft | 477 kts | 204° |
| 2026-05-04 23:11 | -7.82942 | -35.55692 | 38014 ft | 477 kts | 204° |
| 2026-05-04 23:12 | -7.89053 | -35.58323 | 38017 ft | 477 kts | 204° |
| 2026-05-04 23:12 | -7.95159 | -35.60945 | 38009 ft | 477 kts | 204° |
| 2026-05-04 23:13 | -8.01255 | -35.63557 | 38018 ft | 476 kts | 204° |
| 2026-05-04 23:13 | -8.07378 | -35.66182 | 38023 ft | 478 kts | 204° |
| 2026-05-04 23:14 | -8.13498 | -35.68807 | 38015 ft | 477 kts | 204° |
| 2026-05-04 23:14 | -8.19564 | -35.71411 | 38017 ft | 477 kts | 204° |
| 2026-05-04 23:15 | -8.25671 | -35.74032 | 38019 ft | 477 kts | 204° |
| 2026-05-04 23:15 | -8.31785 | -35.76659 | 38024 ft | 477 kts | 204° |
| 2026-05-04 23:16 | -8.37885 | -35.79279 | 38026 ft | 477 kts | 204° |
| 2026-05-04 23:16 | -8.44000 | -35.81907 | 38028 ft | 477 kts | 204° |
| 2026-05-04 23:17 | -8.50114 | -35.84536 | 38028 ft | 477 kts | 204° |
| 2026-05-04 23:17 | -8.56227 | -35.87165 | 38032 ft | 478 kts | 204° |
| 2026-05-04 23:18 | -8.62350 | -35.89796 | 38034 ft | 478 kts | 204° |
| 2026-05-04 23:18 | -8.68467 | -35.92430 | 38035 ft | 478 kts | 203° |
| 2026-05-04 23:19 | -8.74586 | -35.95066 | 38037 ft | 478 kts | 203° |
| 2026-05-04 23:19 | -8.80662 | -35.97685 | 38039 ft | 478 kts | 203° |
| 2026-05-04 23:20 | -8.86665 | -36.00577 | 38043 ft | 478 kts | 211° |
| 2026-05-04 23:20 | -8.92149 | -36.04382 | 38044 ft | 479 kts | 216° |
| 2026-05-04 23:21 | -8.97582 | -36.08300 | 38045 ft | 479 kts | 214° |
| 2026-05-04 23:21 | -9.03055 | -36.12145 | 38045 ft | 479 kts | 214° |
| 2026-05-04 23:22 | -9.08524 | -36.16004 | 38045 ft | 479 kts | 214° |
| 2026-05-04 23:22 | -9.13951 | -36.19841 | 38045 ft | 479 kts | 214° |
| 2026-05-04 23:23 | -9.19419 | -36.23709 | 38049 ft | 479 kts | 214° |
| 2026-05-04 23:23 | -9.24894 | -36.27583 | 38049 ft | 480 kts | 214° |
| 2026-05-04 23:24 | -9.30365 | -36.31457 | 38050 ft | 480 kts | 214° |
| 2026-05-04 23:24 | -9.35845 | -36.35331 | 38052 ft | 480 kts | 214° |
| 2026-05-04 23:25 | -9.41319 | -36.39205 | 38052 ft | 480 kts | 214° |
| 2026-05-04 23:25 | -9.46767 | -36.43058 | 38053 ft | 480 kts | 214° |
| 2026-05-04 23:26 | -9.52239 | -36.46937 | 38053 ft | 480 kts | 214° |
| 2026-05-04 23:26 | -9.57712 | -36.50820 | 38053 ft | 480 kts | 214° |
| 2026-05-04 23:27 | -9.63185 | -36.54705 | 38053 ft | 480 kts | 214° |
| 2026-05-04 23:27 | -9.68669 | -36.58597 | 38053 ft | 480 kts | 215° |
| 2026-05-04 23:28 | -9.74141 | -36.62493 | 38053 ft | 480 kts | 215° |
| 2026-05-04 23:28 | -9.79607 | -36.66393 | 38053 ft | 480 kts | 215° |
| 2026-05-04 23:29 | -9.85037 | -36.70270 | 38053 ft | 480 kts | 215° |
| 2026-05-04 23:29 | -9.90508 | -36.74174 | 38053 ft | 480 kts | 215° |
| 2026-05-04 23:30 | -9.95971 | -36.78077 | 38053 ft | 480 kts | 215° |
| 2026-05-04 23:30 | -10.01425 | -36.81979 | 38053 ft | 480 kts | 215° |
| 2026-05-04 23:31 | -10.06864 | -36.85872 | 38053 ft | 479 kts | 215° |
| 2026-05-04 23:31 | -10.12309 | -36.89773 | 38053 ft | 479 kts | 215° |
| 2026-05-04 23:32 | -10.17759 | -36.93678 | 38053 ft | 480 kts | 215° |
| 2026-05-04 23:32 | -10.23215 | -36.97582 | 38053 ft | 480 kts | 215° |
| 2026-05-04 23:33 | -10.28671 | -37.01487 | 38053 ft | 480 kts | 215° |
| 2026-05-04 23:33 | -10.34126 | -37.05396 | 38053 ft | 480 kts | 215° |
| 2026-05-04 23:34 | -10.39584 | -37.09311 | 38053 ft | 480 kts | 215° |
| 2026-05-04 23:34 | -10.45035 | -37.13222 | 38053 ft | 479 kts | 215° |
| 2026-05-04 23:35 | -10.50487 | -37.17136 | 38053 ft | 479 kts | 215° |
| 2026-05-04 23:35 | -10.55903 | -37.21026 | 38053 ft | 479 kts | 215° |
| 2026-05-04 23:36 | -10.61344 | -37.24936 | 38053 ft | 479 kts | 215° |
| 2026-05-04 23:36 | -10.66799 | -37.28857 | 38053 ft | 480 kts | 215° |
| 2026-05-04 23:37 | -10.72256 | -37.32782 | 38053 ft | 480 kts | 215° |
| 2026-05-04 23:37 | -10.77708 | -37.36705 | 38053 ft | 480 kts | 215° |
| 2026-05-04 23:38 | -10.83151 | -37.40623 | 38053 ft | 480 kts | 215° |
| 2026-05-04 23:38 | -10.88572 | -37.44527 | 38053 ft | 480 kts | 215° |
| 2026-05-04 23:39 | -10.94016 | -37.48450 | 38053 ft | 480 kts | 215° |
| 2026-05-04 23:39 | -10.99460 | -37.52374 | 38053 ft | 480 kts | 216° |
| 2026-05-04 23:40 | -11.04924 | -37.56314 | 38053 ft | 482 kts | 216° |
| 2026-05-04 23:40 | -11.10402 | -37.60267 | 38053 ft | 482 kts | 216° |
| 2026-05-04 23:41 | -11.15865 | -37.64211 | 38053 ft | 481 kts | 216° |
| 2026-05-04 23:41 | -11.21321 | -37.68148 | 38053 ft | 481 kts | 216° |
| 2026-05-04 23:42 | -11.26789 | -37.72096 | 38053 ft | 480 kts | 216° |
| 2026-05-04 23:42 | -11.32229 | -37.76030 | 38053 ft | 479 kts | 216° |
| 2026-05-04 23:43 | -11.37663 | -37.79963 | 38053 ft | 479 kts | 216° |
| 2026-05-04 23:43 | -11.43066 | -37.83875 | 38053 ft | 479 kts | 216° |
| 2026-05-04 23:44 | -11.48506 | -37.87819 | 38053 ft | 478 kts | 216° |
| 2026-05-04 23:44 | -11.53923 | -37.91762 | 38053 ft | 478 kts | 216° |
| 2026-05-04 23:45 | -11.59339 | -37.95709 | 38053 ft | 478 kts | 216° |
| 2026-05-04 23:45 | -11.64744 | -37.99650 | 38064 ft | 477 kts | 216° |
| 2026-05-04 23:46 | -11.70108 | -38.03564 | 38065 ft | 477 kts | 216° |
| 2026-05-04 23:46 | -11.75505 | -38.07501 | 38065 ft | 477 kts | 216° |
| 2026-05-04 23:47 | -11.80906 | -38.11435 | 38069 ft | 476 kts | 216° |
| 2026-05-04 23:47 | -11.86309 | -38.15376 | 38069 ft | 476 kts | 216° |
| 2026-05-04 23:48 | -11.91670 | -38.19291 | 38070 ft | 476 kts | 216° |
| 2026-05-04 23:48 | -11.97060 | -38.23230 | 38072 ft | 476 kts | 216° |
| 2026-05-04 23:49 | -12.02453 | -38.27173 | 38073 ft | 476 kts | 216° |
| 2026-05-04 23:49 | -12.07845 | -38.31118 | 38074 ft | 476 kts | 216° |
| 2026-05-04 23:50 | -12.13197 | -38.35035 | 38075 ft | 475 kts | 216° |
| 2026-05-04 23:50 | -12.18571 | -38.38970 | 38077 ft | 474 kts | 216° |
| 2026-05-04 23:51 | -12.23943 | -38.42906 | 38078 ft | 475 kts | 216° |
| 2026-05-04 23:51 | -12.29320 | -38.46848 | 38077 ft | 475 kts | 216° |
| 2026-05-04 23:52 | -12.34660 | -38.50764 | 38078 ft | 475 kts | 216° |
| 2026-05-04 23:52 | -12.40030 | -38.54705 | 38079 ft | 475 kts | 216° |
| 2026-05-04 23:53 | -12.45400 | -38.58648 | 38079 ft | 475 kts | 216° |
| 2026-05-04 23:53 | -12.50766 | -38.62583 | 38080 ft | 475 kts | 216° |
| 2026-05-04 23:54 | -12.56132 | -38.66527 | 38081 ft | 474 kts | 216° |
| 2026-05-04 23:54 | -12.60592 | -38.69809 | 38079 ft | 475 kts | 216° |
| 2026-05-04 23:55 | -12.65958 | -38.73760 | 38079 ft | 475 kts | 216° |
| 2026-05-04 23:56 | -12.74007 | -38.79687 | 38080 ft | 475 kts | 216° |
| 2026-05-04 23:56 | -12.79363 | -38.83638 | 38080 ft | 475 kts | 216° |
| 2026-05-04 23:57 | -12.84726 | -38.87598 | 38080 ft | 475 kts | 216° |
| 2026-05-04 23:57 | -12.90084 | -38.91561 | 38079 ft | 475 kts | 216° |
| 2026-05-04 23:58 | -12.95403 | -38.95503 | 38077 ft | 475 kts | 216° |
| 2026-05-04 23:58 | -13.00770 | -38.99484 | 38077 ft | 475 kts | 216° |
| 2026-05-04 23:59 | -13.06127 | -39.03459 | 38077 ft | 475 kts | 216° |
| 2026-05-04 23:59 | -13.11476 | -39.07430 | 38076 ft | 475 kts | 216° |
| 2026-05-05 00:00 | -13.16845 | -39.11412 | 38075 ft | 475 kts | 216° |
| 2026-05-05 00:00 | -13.22179 | -39.15361 | 38091 ft | 475 kts | 217° |
| 2026-05-05 00:01 | -13.27528 | -39.19335 | 38092 ft | 472 kts | 217° |
| 2026-05-05 00:01 | -13.32848 | -39.23294 | 38093 ft | 473 kts | 217° |
| 2026-05-05 00:02 | -13.38180 | -39.27265 | 38097 ft | 473 kts | 217° |
| 2026-05-05 00:02 | -13.43508 | -39.31232 | 38098 ft | 473 kts | 217° |
| 2026-05-05 00:03 | -13.48787 | -39.35176 | 38098 ft | 473 kts | 217° |
| 2026-05-05 00:03 | -13.54109 | -39.39164 | 38097 ft | 473 kts | 217° |
| 2026-05-05 00:04 | -13.59421 | -39.43147 | 38100 ft | 473 kts | 217° |
| 2026-05-05 00:04 | -13.64737 | -39.47137 | 38100 ft | 473 kts | 217° |
| 2026-05-05 00:05 | -13.70053 | -39.51128 | 38102 ft | 473 kts | 217° |
| 2026-05-05 00:05 | -13.75376 | -39.55119 | 38107 ft | 473 kts | 217° |
| 2026-05-05 00:06 | -13.80692 | -39.59104 | 38107 ft | 473 kts | 217° |
| 2026-05-05 00:06 | -13.85974 | -39.63071 | 38101 ft | 473 kts | 217° |
| 2026-05-05 00:07 | -13.91299 | -39.67074 | 38103 ft | 474 kts | 218° |
| 2026-05-05 00:07 | -13.96625 | -39.71081 | 38104 ft | 473 kts | 218° |
| 2026-05-05 00:08 | -14.01950 | -39.75089 | 38103 ft | 474 kts | 218° |
| 2026-05-05 00:08 | -14.07243 | -39.79075 | 38105 ft | 474 kts | 218° |
| 2026-05-05 00:09 | -14.12563 | -39.83085 | 38109 ft | 473 kts | 218° |
| 2026-05-05 00:09 | -14.17881 | -39.87096 | 38096 ft | 474 kts | 218° |
| 2026-05-05 00:10 | -14.23215 | -39.91120 | 38094 ft | 476 kts | 218° |
| 2026-05-05 00:10 | -14.28556 | -39.95152 | 38097 ft | 475 kts | 218° |
| 2026-05-05 00:11 | -14.33887 | -39.99177 | 38097 ft | 475 kts | 218° |
| 2026-05-05 00:11 | -14.39198 | -40.03185 | 38095 ft | 476 kts | 218° |
| 2026-05-05 00:12 | -14.44538 | -40.07227 | 38104 ft | 476 kts | 218° |
| 2026-05-05 00:12 | -14.49879 | -40.11273 | 38091 ft | 477 kts | 218° |
| 2026-05-05 00:13 | -14.55250 | -40.15344 | 38083 ft | 479 kts | 218° |
| 2026-05-05 00:13 | -14.60632 | -40.19422 | 38085 ft | 479 kts | 218° |
| 2026-05-05 00:14 | -14.66005 | -40.23497 | 38085 ft | 479 kts | 218° |
| 2026-05-05 00:14 | -14.71345 | -40.27552 | 38080 ft | 480 kts | 218° |
| 2026-05-05 00:15 | -14.76729 | -40.31644 | 38077 ft | 481 kts | 218° |
| 2026-05-05 00:15 | -14.82125 | -40.35749 | 38070 ft | 482 kts | 218° |
| 2026-05-05 00:16 | -14.87534 | -40.39863 | 38065 ft | 483 kts | 218° |
| 2026-05-05 00:16 | -14.92956 | -40.43976 | 38064 ft | 483 kts | 218° |
| 2026-05-05 00:17 | -14.98374 | -40.48096 | 38070 ft | 483 kts | 218° |
| 2026-05-05 00:17 | -15.03785 | -40.52217 | 38069 ft | 482 kts | 218° |
| 2026-05-05 00:18 | -15.09190 | -40.56336 | 38058 ft | 484 kts | 218° |
| 2026-05-05 00:18 | -15.14586 | -40.60451 | 38061 ft | 485 kts | 218° |
| 2026-05-05 00:19 | -15.20011 | -40.64591 | 38062 ft | 483 kts | 218° |
| 2026-05-05 00:19 | -15.25424 | -40.68725 | 38063 ft | 483 kts | 218° |
| 2026-05-05 00:20 | -15.30844 | -40.72867 | 38069 ft | 483 kts | 218° |
| 2026-05-05 00:20 | -15.36240 | -40.76994 | 38073 ft | 481 kts | 218° |
| 2026-05-05 00:21 | -15.41631 | -40.81119 | 38065 ft | 482 kts | 218° |
| 2026-05-05 00:21 | -15.47010 | -40.85237 | 38064 ft | 483 kts | 218° |
| 2026-05-05 00:22 | -15.52416 | -40.89380 | 38072 ft | 482 kts | 218° |
| 2026-05-05 00:22 | -15.57804 | -40.93512 | 38075 ft | 481 kts | 218° |
| 2026-05-05 00:23 | -15.63187 | -40.97642 | 38076 ft | 481 kts | 218° |
| 2026-05-05 00:23 | -15.68522 | -41.01738 | 38085 ft | 480 kts | 218° |
| 2026-05-05 00:24 | -15.73892 | -41.05855 | 38080 ft | 480 kts | 218° |
| 2026-05-05 00:24 | -15.79267 | -41.09986 | 38079 ft | 480 kts | 218° |
| 2026-05-05 00:25 | -15.84639 | -41.14122 | 38086 ft | 480 kts | 218° |
| 2026-05-05 00:25 | -15.89985 | -41.18243 | 38089 ft | 478 kts | 218° |
| 2026-05-05 00:26 | -15.95327 | -41.22359 | 38089 ft | 478 kts | 218° |
| 2026-05-05 00:26 | -16.00669 | -41.26476 | 38088 ft | 478 kts | 218° |
| 2026-05-05 00:27 | -16.05970 | -41.30566 | 38092 ft | 477 kts | 218° |
| 2026-05-05 00:27 | -16.11305 | -41.34687 | 38093 ft | 477 kts | 218° |
| 2026-05-05 00:28 | -16.16626 | -41.38801 | 38096 ft | 476 kts | 218° |
| 2026-05-05 00:28 | -16.21938 | -41.42910 | 38101 ft | 475 kts | 218° |
| 2026-05-05 00:29 | -16.27244 | -41.47008 | 38102 ft | 475 kts | 218° |
| 2026-05-05 00:29 | -16.32554 | -41.51107 | 38101 ft | 475 kts | 218° |
| 2026-05-05 00:30 | -16.37850 | -41.55206 | 38105 ft | 474 kts | 218° |
| 2026-05-05 00:30 | -16.43104 | -41.59276 | 38127 ft | 473 kts | 219° |
| 2026-05-05 00:31 | -16.48389 | -41.63375 | 38137 ft | 472 kts | 219° |
| 2026-05-05 00:31 | -16.53651 | -41.67458 | 38140 ft | 471 kts | 219° |
| 2026-05-05 00:32 | -16.58914 | -41.71545 | 38141 ft | 471 kts | 219° |
| 2026-05-05 00:32 | -16.64174 | -41.75625 | 38149 ft | 470 kts | 219° |
| 2026-05-05 00:33 | -16.69384 | -41.79673 | 38151 ft | 470 kts | 219° |
| 2026-05-05 00:33 | -16.74623 | -41.83754 | 38153 ft | 470 kts | 219° |
| 2026-05-05 00:34 | -16.79859 | -41.87836 | 38156 ft | 469 kts | 219° |
| 2026-05-05 00:34 | -16.85082 | -41.91908 | 38158 ft | 468 kts | 219° |
| 2026-05-05 00:35 | -16.90306 | -41.95983 | 38155 ft | 468 kts | 219° |
| 2026-05-05 00:35 | -16.95515 | -42.00051 | 38162 ft | 467 kts | 219° |
| 2026-05-05 00:36 | -17.00719 | -42.04121 | 38167 ft | 467 kts | 219° |
| 2026-05-05 00:36 | -17.05893 | -42.08171 | 38167 ft | 467 kts | 219° |
| 2026-05-05 00:37 | -17.11092 | -42.12245 | 38166 ft | 466 kts | 219° |
| 2026-05-05 00:37 | -17.16289 | -42.16315 | 38170 ft | 466 kts | 218° |
| 2026-05-05 00:38 | -17.21482 | -42.20371 | 38179 ft | 465 kts | 219° |
| 2026-05-05 00:38 | -17.26622 | -42.24396 | 38177 ft | 464 kts | 219° |
| 2026-05-05 00:39 | -17.31793 | -42.28451 | 38177 ft | 464 kts | 219° |
| 2026-05-05 00:39 | -17.36946 | -42.32497 | 38185 ft | 462 kts | 219° |
| 2026-05-05 00:40 | -17.42094 | -42.36542 | 38190 ft | 460 kts | 219° |
| 2026-05-05 00:40 | -17.47212 | -42.40567 | 38191 ft | 460 kts | 219° |
| 2026-05-05 00:41 | -17.52293 | -42.44565 | 38197 ft | 460 kts | 219° |
| 2026-05-05 00:41 | -17.57415 | -42.48599 | 38197 ft | 460 kts | 219° |
| 2026-05-05 00:42 | -17.62528 | -42.52628 | 38192 ft | 460 kts | 219° |
| 2026-05-05 00:42 | -17.67640 | -42.56660 | 38190 ft | 460 kts | 219° |
| 2026-05-05 00:43 | -17.72751 | -42.60693 | 38190 ft | 460 kts | 219° |
| 2026-05-05 00:43 | -17.77856 | -42.64726 | 38184 ft | 460 kts | 219° |
| 2026-05-05 00:44 | -17.82102 | -42.68081 | 38187 ft | 460 kts | 219° |
| 2026-05-05 00:44 | -17.87218 | -42.72127 | 38188 ft | 460 kts | 219° |
| 2026-05-05 00:45 | -17.92212 | -42.76080 | 38025 ft | 439 kts | 219° |
| 2026-05-05 00:45 | -17.94646 | -42.78007 | 37525 ft | 437 kts | 219° |
| 2026-05-05 00:45 | -17.97085 | -42.79940 | 36737 ft | 441 kts | 219° |
| 2026-05-05 00:45 | -17.99525 | -42.81873 | 36189 ft | 440 kts | 219° |
| 2026-05-05 00:46 | -18.02761 | -42.84438 | 35386 ft | 440 kts | 219° |
| 2026-05-05 00:46 | -18.04358 | -42.85705 | 35041 ft | 439 kts | 219° |
| 2026-05-05 00:46 | -18.06838 | -42.87673 | 34531 ft | 437 kts | 218° |
| 2026-05-05 00:46 | -18.09270 | -42.89602 | 34050 ft | 435 kts | 218° |
| 2026-05-05 00:47 | -18.11668 | -42.91506 | 33576 ft | 432 kts | 218° |
| 2026-05-05 00:47 | -18.12457 | -42.92133 | 33428 ft | 431 kts | 218° |